Boston, MA (02116)

8:28 AM EDT on September 04, 2015 (GMT -0400)
South End, Boston, MA | | Change Station
CLOSE
Current Station
Personal Weather Station
Location: Boston, MA
Elevation: 33 ft
Nearby Weather Stations

Elev 33 ft 42.34 °N, 71.08 °W | Updated 15 minutes ago

Overcast
Overcast
68.2 °F
Feels Like 68.2 °F
N
2.2
Wind Variable Wind from ESE

Today
High -- | Low -- °F
--% Chance of Precip.
Yesterday
High -- | Low -- °F
Precip. -- in
6:12 AM 7:13 PM
Waning Gibbous, 60% visible
Pressure 30.12 in
Visibility 10.0 miles
Clouds Overcast 2600 ft
Dew Point 51 °F
Humidity 55%
Rainfall 0.00 in
Snow Depth Not available.
UV 0 out of 12
Pollen 8.50 out of 12
Air Quality Not available.
Flu Activity Not available.
METAR KBOS 041154Z 03014KT 10SM OVC026 19/13 A3012 RMK AO2 SLP198 70001 T01890128 10222 20189 51035
Pressure 30.12 in
Visibility 10.0 miles
Clouds Overcast 2600 ft
Dew Point 51 °F
Humidity 55%
Rainfall 0.00 in
Snow Depth Not available.
UV 0 out of 12
Pollen 8.50 out of 12
Air Quality Not available.
Flu Activity Not available.
METAR KBOS 041154Z 03014KT 10SM OVC026 19/13 A3012 RMK AO2 SLP198 70001 T01890128 10222 20189 51035

10-Day Weather Forecast

×

Almanac

Astronomy

Sep. 04, 2015 Rise Set
Actual Time
Civil Twilight
Nautical Twilight
Astronomical Twilight
Moon
Length of Visible Light
Length of Day
Tomorrow will be .
, % of the Moon is Illuminated

Today's Extremes

State Highs State Lows

Community

WunderPhotos

Upload Photos

1,852,160 photos uploaded!

WunderBlogs® & News

Nearby

Air Quality

  Air Quality AQ Index Pollutant
Not available.

Snow Depth

Station Depth Elevation

Earthquake Activity

City Distance Mag. Time & Date
Minimum magnitude displayed is 2.5.

Coastal Water Temperatures

Place Temperature

Stations

Nearby Weather Stations

Station Location Temp. Windchill Dew Point Humidity Wind Precip. Elev Updated Type